createdAt,value
2022-08-20T00:00:14.407Z,22.25
2022-08-20T00:02:47.268Z,23.55
2022-08-20T00:05:14.259Z,23.73
2022-08-20T00:07:40.776Z,22.58
2022-08-20T00:10:08.776Z,20.50
2022-08-20T00:12:36.162Z,19.38
2022-08-20T00:15:05.677Z,19.52
2022-08-20T00:17:37.291Z,19.27
2022-08-20T00:20:04.718Z,18.73
2022-08-20T00:22:31.297Z,19.00
2022-08-20T00:24:57.673Z,18.42
2022-08-20T00:27:24.409Z,18.70
2022-08-20T00:29:50.999Z,19.80
2022-08-20T00:32:17.512Z,18.23
2022-08-20T00:34:44.010Z,19.45
2022-08-20T00:37:10.609Z,17.27
2022-08-20T00:39:37.624Z,17.77
2022-08-20T00:42:04.865Z,18.05
2022-08-20T00:44:31.502Z,17.98
2022-08-20T00:46:58.018Z,17.42
2022-08-20T00:49:26.570Z,17.92
2022-08-20T00:52:06.447Z,17.05
2022-08-20T00:54:43.882Z,15.65
2022-08-20T00:57:13.892Z,16.98
2022-08-20T00:59:41.849Z,15.75
2022-08-20T01:02:10.521Z,15.27
2022-08-20T01:04:37.344Z,15.73
2022-08-20T01:07:05.470Z,18.33
2022-08-20T01:09:49.706Z,17.02
2022-08-20T01:12:19.888Z,15.52
2022-08-20T01:14:46.911Z,18.00
2022-08-20T01:17:17.939Z,16.33
2022-08-20T01:19:47.532Z,16.25
2022-08-20T01:22:36.566Z,16.33
2022-08-20T01:25:09.551Z,16.77
2022-08-20T01:27:42.543Z,16.52
2022-08-20T01:30:09.536Z,15.00
2022-08-20T01:32:35.979Z,15.73
2022-08-20T01:35:02.661Z,16.73
2022-08-20T01:37:31.521Z,16.13
2022-08-20T01:39:59.131Z,15.63
2022-08-20T01:42:30.045Z,14.65
2022-08-20T01:47:27.993Z,19.58
2022-08-20T01:50:02.895Z,15.32
2022-08-20T01:52:36.786Z,19.15
2022-08-20T01:55:03.764Z,21.92
2022-08-20T01:57:30.346Z,18.83
2022-08-20T01:59:56.721Z,21.40
2022-08-20T02:02:24.427Z,18.42
2022-08-20T02:04:51.693Z,22.70
2022-08-20T02:07:19.917Z,21.83
2022-08-20T02:09:47.613Z,24.38
2022-08-20T02:12:14.432Z,25.58
2022-08-20T02:14:45.791Z,22.10
2022-08-20T02:17:12.764Z,25.73
2022-08-20T02:19:41.089Z,26.83
2022-08-20T02:22:20.534Z,25.52
2022-08-20T02:24:48.150Z,27.20
2022-08-20T02:27:14.819Z,26.77
2022-08-20T02:29:41.393Z,27.55
2022-08-20T02:32:32.746Z,28.27
2022-08-20T02:34:55.162Z,28.95
2022-08-20T02:37:21.559Z,28.20
2022-08-20T02:39:48.043Z,28.60
2022-08-20T02:42:14.784Z,30.67
2022-08-20T02:44:41.136Z,29.65
2022-08-20T02:47:07.877Z,31.15
2022-08-20T02:49:35.031Z,31.58
2022-08-20T02:52:01.526Z,29.15
2022-08-20T02:54:29.328Z,30.75
2022-08-20T02:56:55.890Z,31.23
2022-08-20T02:59:22.335Z,30.85
2022-08-20T03:01:59.717Z,31.58
2022-08-20T03:04:27.165Z,29.10
2022-08-20T03:06:53.530Z,32.78
2022-08-20T03:09:19.970Z,33.38
2022-08-20T03:11:46.502Z,28.42
2022-08-20T03:14:12.866Z,33.30
2022-08-20T03:16:39.271Z,35.33
2022-08-20T03:19:05.782Z,40.00
2022-08-20T03:21:32.491Z,30.08
2022-08-20T03:23:58.934Z,31.65
2022-08-20T03:26:25.643Z,36.15
2022-08-20T03:28:52.098Z,36.92
2022-08-20T03:31:19.049Z,38.33
2022-08-20T03:33:52.636Z,37.50
2022-08-20T03:36:27.715Z,37.97
2022-08-20T03:38:55.915Z,34.35
2022-08-20T03:41:22.309Z,43.28
2022-08-20T03:43:48.780Z,41.78
2022-08-20T03:46:23.610Z,44.67
2022-08-20T03:48:56.721Z,47.45
2022-08-20T03:51:27.017Z,38.53
2022-08-20T03:53:53.566Z,43.67
2022-08-20T03:56:20.136Z,43.53
2022-08-20T03:58:46.655Z,36.80
2022-08-20T04:01:36.877Z,41.30
2022-08-20T04:04:00.494Z,43.28
2022-08-20T04:06:28.858Z,42.40
2022-08-20T04:08:55.787Z,46.20
2022-08-20T04:11:22.319Z,45.50
2022-08-20T04:13:48.744Z,37.05
2022-08-20T04:16:16.237Z,50.42
2022-08-20T04:18:43.488Z,48.33
2022-08-20T04:21:30.957Z,46.13
2022-08-20T04:26:26.036Z,42.30
2022-08-20T04:28:53.105Z,41.28
2022-08-20T04:31:24.829Z,45.50
2022-08-20T04:33:51.950Z,44.25
2022-08-20T04:36:18.582Z,42.30
2022-08-20T04:38:47.986Z,44.30
2022-08-20T04:41:21.057Z,37.60
2022-08-20T04:43:50.271Z,42.58
2022-08-20T04:46:16.988Z,37.38
2022-08-20T04:48:50.146Z,42.15
2022-08-20T04:51:17.926Z,39.67
2022-08-20T04:53:53.169Z,33.10
2022-08-20T04:56:24.173Z,34.58
2022-08-20T04:58:51.392Z,38.75
2022-08-20T05:01:18.081Z,36.35
2022-08-20T05:03:45.931Z,38.92
2022-08-20T05:06:12.885Z,40.60
2022-08-20T05:08:39.931Z,37.67
2022-08-20T05:11:33.773Z,41.20
2022-08-20T05:13:53.631Z,33.55
2022-08-20T05:16:21.195Z,39.80
2022-08-20T05:18:52.158Z,40.95
2022-08-20T05:21:20.069Z,38.00
2022-08-20T05:23:46.577Z,39.83
2022-08-20T05:26:15.254Z,39.97
2022-08-20T05:28:52.763Z,34.83
2022-08-20T05:31:30.899Z,41.05
2022-08-20T05:33:59.721Z,39.05
2022-08-20T05:36:27.055Z,38.05
2022-08-20T05:38:53.917Z,39.05
2022-08-20T05:41:29.310Z,34.05
2022-08-20T05:44:01.505Z,35.10
2022-08-20T05:46:28.769Z,34.30
2022-08-20T05:48:55.392Z,37.47
2022-08-20T05:51:26.069Z,33.67
2022-08-20T05:53:52.571Z,34.67
2022-08-20T05:56:19.044Z,33.75
2022-08-20T05:58:48.246Z,33.28
2022-08-20T06:01:18.627Z,35.60
2022-08-20T06:04:03.849Z,33.22
2022-08-20T06:06:45.951Z,35.17
2022-08-20T06:09:14.132Z,34.70
2022-08-20T06:11:40.585Z,33.33
2022-08-20T06:14:06.985Z,33.40
2022-08-20T06:16:33.467Z,35.35
2022-08-20T06:18:59.978Z,31.48
2022-08-20T06:21:29.574Z,32.40
2022-08-20T06:23:58.031Z,33.90
2022-08-20T06:26:30.425Z,35.55
2022-08-20T06:28:57.888Z,35.55
2022-08-20T06:31:24.485Z,36.90
2022-08-20T06:33:50.838Z,33.72
2022-08-20T06:36:18.058Z,35.20
2022-08-20T06:38:46.349Z,34.15
2022-08-20T06:41:12.977Z,36.92
2022-08-20T06:43:39.328Z,37.45
2022-08-20T06:46:06.986Z,37.22
2022-08-20T06:48:33.459Z,35.67
2022-08-20T06:50:59.944Z,37.80
2022-08-20T06:53:26.375Z,39.58
2022-08-20T06:55:54.594Z,33.90
2022-08-20T06:58:37.001Z,33.80
2022-08-20T07:01:12.275Z,34.60
2022-08-20T07:03:42.183Z,36.63
2022-08-20T07:06:21.609Z,38.85
2022-08-20T07:08:48.132Z,36.78
2022-08-20T07:11:14.554Z,32.50
2022-08-20T07:13:42.014Z,38.10
2022-08-20T07:16:08.934Z,38.17
2022-08-20T07:18:35.657Z,43.42
2022-08-20T07:21:02.042Z,38.72
2022-08-20T07:23:28.489Z,36.03
2022-08-20T07:25:55.856Z,39.17
2022-08-20T07:28:24.429Z,35.78
2022-08-20T07:31:13.281Z,40.15
2022-08-20T07:33:44.401Z,39.13
2022-08-20T07:36:13.994Z,39.47
2022-08-20T07:38:40.503Z,40.63
2022-08-20T07:41:08.600Z,40.00
2022-08-20T07:43:35.529Z,39.83
2022-08-20T07:46:03.168Z,40.63
2022-08-20T07:48:31.945Z,38.45
2022-08-20T07:51:00.088Z,43.83
2022-08-20T07:53:26.934Z,45.50
2022-08-20T07:55:59.438Z,43.72
2022-08-20T07:58:33.146Z,45.58
2022-08-20T08:01:00.266Z,39.20
2022-08-20T08:03:40.643Z,42.13
2022-08-20T08:06:14.555Z,47.00
2022-08-20T08:08:43.715Z,46.90
2022-08-20T08:11:11.083Z,45.47
2022-08-20T08:13:40.091Z,44.47
2022-08-20T08:16:07.300Z,45.63
2022-08-20T08:18:39.667Z,40.03
2022-08-20T08:21:07.002Z,45.58
2022-08-20T08:23:34.715Z,44.67
2022-08-20T08:26:01.778Z,43.25
2022-08-20T08:28:31.254Z,41.30
2022-08-20T08:30:58.140Z,44.97
2022-08-20T08:33:31.156Z,45.90
2022-08-20T08:35:59.441Z,42.13
2022-08-20T08:38:25.977Z,43.47
2022-08-20T08:41:00.144Z,44.78
2022-08-20T08:43:31.183Z,42.05
2022-08-20T08:46:01.575Z,45.05
2022-08-20T08:48:32.245Z,44.35
2022-08-20T08:50:59.610Z,43.97
2022-08-20T08:53:30.290Z,46.08
2022-08-20T08:55:56.879Z,42.20
2022-08-20T08:58:23.358Z,41.75
2022-08-20T09:00:55.862Z,43.20
2022-08-20T09:03:29.396Z,43.88
2022-08-20T09:05:59.752Z,42.72
2022-08-20T09:08:42.051Z,39.72
2022-08-20T09:11:09.043Z,41.58
2022-08-20T09:13:36.502Z,40.00
2022-08-20T09:16:03.385Z,39.20
2022-08-20T09:18:29.833Z,34.53
2022-08-20T09:20:56.288Z,32.97
2022-08-20T09:23:22.787Z,36.78
2022-08-20T09:25:49.544Z,34.20
2022-08-20T09:28:15.962Z,32.60
2022-08-20T09:30:42.500Z,33.47
2022-08-20T09:33:10.869Z,31.40
2022-08-20T09:35:38.091Z,32.30
2022-08-20T09:38:04.603Z,31.40
2022-08-20T09:40:31.087Z,28.80
2022-08-20T09:42:57.577Z,31.75
2022-08-20T09:45:24.102Z,30.05
2022-08-20T09:47:56.537Z,26.77
2022-08-20T09:50:27.443Z,25.00
2022-08-20T09:52:55.409Z,28.17
2022-08-20T09:55:31.390Z,28.77
2022-08-20T09:57:58.998Z,25.17
2022-08-20T10:00:25.388Z,24.83
2022-08-20T10:02:53.547Z,21.80
2022-08-20T10:05:20.027Z,22.83
2022-08-20T10:07:46.616Z,20.48
2022-08-20T10:10:15.124Z,22.55
2022-08-20T10:12:41.832Z,20.48
2022-08-20T10:15:08.712Z,20.10
2022-08-20T10:17:39.446Z,20.05
2022-08-20T10:20:06.574Z,19.77
2022-08-20T10:22:32.936Z,16.75
2022-08-20T10:24:59.397Z,18.77
2022-08-20T10:27:25.780Z,14.93
2022-08-20T10:29:52.454Z,14.35
2022-08-20T10:32:19.024Z,13.73
2022-08-20T10:34:48.016Z,13.65
2022-08-20T10:37:18.661Z,12.05
2022-08-20T10:39:46.053Z,12.00
2022-08-20T10:42:12.749Z,13.35
2022-08-20T10:44:39.454Z,13.85
2022-08-20T10:47:18.602Z,10.52
2022-08-20T10:49:45.775Z,10.63
2022-08-20T10:52:12.168Z,11.05
2022-08-20T10:54:42.226Z,10.68
2022-08-20T10:57:13.636Z,12.93
2022-08-20T10:59:40.783Z,11.15
2022-08-20T11:02:07.661Z,10.20
2022-08-20T11:04:34.648Z,10.35
2022-08-20T11:07:11.577Z,15.63
2022-08-20T11:09:38.080Z,10.95
2022-08-20T11:12:04.688Z,10.88
2022-08-20T11:14:31.467Z,9.93
2022-08-20T11:16:57.976Z,11.15
2022-08-20T11:19:24.374Z,22.48
2022-08-20T11:21:50.782Z,10.77
2022-08-20T11:24:17.272Z,9.55
2022-08-20T11:26:43.985Z,10.05
2022-08-20T11:29:10.857Z,10.68
2022-08-20T11:31:37.315Z,11.70
2022-08-20T11:34:03.753Z,10.55
2022-08-20T11:36:30.205Z,9.23
2022-08-20T11:38:56.622Z,7.85
2022-08-20T11:41:23.198Z,8.52
2022-08-20T11:44:10.375Z,7.68
2022-08-20T11:46:36.153Z,8.95
2022-08-20T11:49:02.845Z,7.10
2022-08-20T11:51:29.230Z,6.90
2022-08-20T11:53:55.699Z,6.32
2022-08-20T11:56:22.148Z,7.65
2022-08-20T11:58:48.646Z,6.78
2022-08-20T12:01:15.176Z,6.45
2022-08-20T12:03:41.685Z,9.00
2022-08-20T12:06:08.358Z,6.45
2022-08-20T12:08:34.722Z,7.40
2022-08-20T12:11:02.209Z,5.82
2022-08-20T12:13:30.959Z,8.05
2022-08-20T12:16:15.556Z,7.53
2022-08-20T12:18:44.436Z,6.43
2022-08-20T12:21:10.973Z,7.10
2022-08-20T12:23:37.397Z,6.40
2022-08-20T12:26:03.872Z,7.07
2022-08-20T12:28:31.073Z,7.68
2022-08-20T12:30:57.866Z,5.95
2022-08-20T12:33:24.361Z,6.18
2022-08-20T12:35:50.831Z,7.30
2022-08-20T12:38:17.322Z,7.22
2022-08-20T12:40:43.720Z,10.07
2022-08-20T12:43:10.097Z,7.10
2022-08-20T12:45:36.608Z,5.97
2022-08-20T12:48:05.382Z,7.65
2022-08-20T12:50:32.165Z,6.05
2022-08-20T12:52:59.016Z,9.00
2022-08-20T12:55:25.944Z,6.35
2022-08-20T12:57:53.965Z,5.75
2022-08-20T13:00:22.688Z,7.80
2022-08-20T13:02:51.704Z,7.15
2022-08-20T13:05:18.247Z,7.93
2022-08-20T13:07:44.896Z,9.30
2022-08-20T13:10:12.815Z,8.77
2022-08-20T13:12:39.428Z,7.22
2022-08-20T13:15:06.508Z,8.07
2022-08-20T13:17:38.703Z,8.55
2022-08-20T13:20:11.851Z,10.15
2022-08-20T13:22:38.375Z,7.63
2022-08-20T13:25:05.522Z,9.80
2022-08-20T13:27:32.599Z,8.82
2022-08-20T13:29:59.353Z,8.68
2022-08-20T13:32:26.043Z,11.07
2022-08-20T13:34:52.565Z,10.40
2022-08-20T13:37:24.943Z,11.25
2022-08-20T13:39:52.062Z,10.18
2022-08-20T13:42:18.582Z,12.18
2022-08-20T13:44:45.046Z,11.43
2022-08-20T13:47:15.014Z,14.40
2022-08-20T13:49:41.691Z,13.82
2022-08-20T13:52:08.288Z,12.85
2022-08-20T13:54:34.985Z,14.48
2022-08-20T13:57:09.116Z,14.85
2022-08-20T13:59:36.653Z,14.23
2022-08-20T14:02:07.157Z,14.93
2022-08-20T14:04:34.280Z,14.27
2022-08-20T14:07:09.929Z,14.75
2022-08-20T14:09:40.543Z,18.45
2022-08-20T14:12:07.779Z,17.83
2022-08-20T14:14:34.567Z,17.92
2022-08-20T14:17:12.279Z,16.15
2022-08-20T14:19:41.554Z,16.13
2022-08-20T14:22:08.155Z,17.65
2022-08-20T14:24:35.895Z,16.98
2022-08-20T14:27:03.340Z,19.55
2022-08-20T14:29:31.547Z,18.75
2022-08-20T14:32:02.696Z,17.77
2022-08-20T14:34:29.444Z,19.20
2022-08-20T14:36:56.081Z,17.65
2022-08-20T14:39:25.554Z,21.00
2022-08-20T14:41:52.060Z,18.33
2022-08-20T14:44:18.689Z,19.38
2022-08-20T14:46:45.192Z,18.75
2022-08-20T14:49:11.595Z,19.67
2022-08-20T14:51:38.818Z,17.23
2022-08-20T14:54:05.231Z,16.98
2022-08-20T14:56:31.676Z,17.77
2022-08-20T14:58:58.112Z,17.63
2022-08-20T15:01:24.705Z,19.33
2022-08-20T15:03:51.244Z,19.38
2022-08-20T15:06:22.247Z,18.67
2022-08-20T15:08:49.119Z,18.27
2022-08-20T15:11:15.591Z,19.55
2022-08-20T15:13:42.040Z,22.30
2022-08-20T15:16:08.529Z,18.95
2022-08-20T15:18:35.333Z,18.95
2022-08-20T15:21:01.848Z,18.98
2022-08-20T15:23:28.260Z,21.23
2022-08-20T15:25:54.847Z,19.77
2022-08-20T15:28:21.465Z,19.52
2022-08-20T15:30:47.875Z,18.33
2022-08-20T15:33:14.470Z,17.95
2022-08-20T15:35:41.030Z,18.48
2022-08-20T15:38:07.502Z,17.58
2022-08-20T15:40:34.250Z,17.80
2022-08-20T15:43:03.155Z,17.98
2022-08-20T15:45:29.645Z,18.05
2022-08-20T15:48:01.351Z,17.00
2022-08-20T15:50:41.005Z,16.58
2022-08-20T15:53:10.648Z,16.95
2022-08-20T15:55:40.514Z,16.75
2022-08-20T15:58:13.937Z,18.23
2022-08-20T16:00:45.315Z,15.85
2022-08-20T16:03:11.797Z,17.38
2022-08-20T16:05:48.135Z,16.90
2022-08-20T16:08:17.670Z,17.98
2022-08-20T16:10:47.052Z,18.80
2022-08-20T16:13:28.579Z,20.50
2022-08-20T16:15:56.665Z,18.58
2022-08-20T16:18:25.901Z,16.63
2022-08-20T16:20:53.822Z,17.05
2022-08-20T16:23:24.013Z,16.90
2022-08-20T16:26:02.739Z,17.17
2022-08-20T16:28:33.534Z,18.00
2022-08-20T16:31:02.500Z,17.27
2022-08-20T16:33:37.491Z,17.17
2022-08-20T16:36:03.886Z,17.58
2022-08-20T16:38:40.066Z,18.50
2022-08-20T16:41:22.951Z,19.90
2022-08-20T16:43:53.878Z,17.67
2022-08-20T16:48:57.866Z,18.15
2022-08-20T16:51:33.610Z,18.50
2022-08-20T16:54:00.113Z,17.90
2022-08-20T16:56:33.648Z,18.45
2022-08-20T16:59:07.883Z,18.48
2022-08-20T17:01:34.880Z,18.92
2022-08-20T17:04:01.342Z,17.25
2022-08-20T17:06:33.810Z,18.20
2022-08-20T17:09:04.009Z,18.25
2022-08-20T17:11:33.247Z,19.35
2022-08-20T17:14:11.647Z,19.45
2022-08-20T17:16:48.528Z,18.25
2022-08-20T17:19:18.381Z,19.55
2022-08-20T17:21:45.065Z,17.98
2022-08-20T17:24:22.581Z,17.52
2022-08-20T17:26:50.742Z,18.17
2022-08-20T17:29:22.086Z,17.58
2022-08-20T17:31:50.456Z,18.35
2022-08-20T17:34:26.203Z,16.52
2022-08-20T17:37:12.902Z,19.30
2022-08-20T17:39:49.711Z,18.13
2022-08-20T17:42:21.298Z,18.48
2022-08-20T17:44:51.151Z,19.15
2022-08-20T17:47:18.513Z,20.58
2022-08-20T17:50:02.087Z,18.15
2022-08-20T17:52:39.030Z,20.13
2022-08-20T17:55:06.118Z,18.33
2022-08-20T17:57:36.922Z,18.15
2022-08-20T18:00:15.475Z,15.50
2022-08-20T18:02:42.455Z,11.45
2022-08-20T18:05:10.824Z,7.97
2022-08-20T18:07:40.913Z,7.93
2022-08-20T18:10:09.100Z,10.33
2022-08-20T18:12:35.619Z,11.55
2022-08-20T18:15:24.742Z,12.70
2022-08-20T18:18:10.783Z,11.20
2022-08-20T18:20:42.883Z,10.75
2022-08-20T18:23:15.359Z,10.25
2022-08-20T18:28:52.309Z,9.32
2022-08-20T18:31:41.767Z,11.73
2022-08-20T18:34:12.873Z,13.43
2022-08-20T18:36:39.639Z,10.10
2022-08-20T18:39:07.927Z,11.32
2022-08-20T18:41:34.269Z,11.70
2022-08-20T18:44:02.158Z,12.55
2022-08-20T18:46:28.654Z,10.82
2022-08-20T18:49:02.587Z,15.27
2022-08-20T18:51:31.865Z,11.40
2022-08-20T18:53:58.393Z,15.77
2022-08-20T18:56:54.373Z,11.32
2022-08-20T18:59:20.843Z,10.43
2022-08-20T19:01:47.847Z,9.55
2022-08-20T19:04:24.148Z,10.93
2022-08-20T19:06:57.334Z,12.32
2022-08-20T19:09:37.073Z,12.27
2022-08-20T19:12:22.574Z,11.20
2022-08-20T19:15:00.027Z,13.60
2022-08-20T19:17:32.744Z,13.10
2022-08-20T19:20:05.376Z,15.02
2022-08-20T19:22:33.209Z,11.35
2022-08-20T19:25:00.564Z,12.57
2022-08-20T19:27:28.321Z,12.90
2022-08-20T19:29:56.872Z,14.10
2022-08-20T19:32:28.523Z,15.93
2022-08-20T19:35:05.897Z,13.40
2022-08-20T19:37:44.394Z,11.68
2022-08-20T19:40:40.102Z,13.35
2022-08-20T19:43:15.279Z,13.55
2022-08-20T19:45:45.119Z,14.77
2022-08-20T19:48:11.567Z,12.98
2022-08-20T19:50:43.247Z,14.68
2022-08-20T19:53:30.795Z,14.30
2022-08-20T19:56:05.902Z,13.40
2022-08-20T19:58:32.674Z,14.20
2022-08-20T20:01:00.503Z,14.93
2022-08-20T20:03:28.880Z,13.85
2022-08-20T20:05:57.475Z,14.02
2022-08-20T20:08:26.648Z,13.00
2022-08-20T20:10:54.312Z,13.85
2022-08-20T20:13:21.379Z,13.02
2022-08-20T20:15:50.447Z,14.55
2022-08-20T20:18:16.841Z,13.93
2022-08-20T20:20:55.902Z,14.23
2022-08-20T20:25:56.099Z,10.07
2022-08-20T20:28:24.810Z,11.68
2022-08-20T20:30:51.235Z,12.57
2022-08-20T20:33:19.401Z,14.15
2022-08-20T20:35:46.330Z,14.85
2022-08-20T20:38:17.009Z,11.23
2022-08-20T20:40:47.896Z,11.18
2022-08-20T20:43:23.814Z,10.10
2022-08-20T20:45:57.107Z,11.20
2022-08-20T20:48:25.593Z,12.40
2022-08-20T20:50:52.119Z,11.30
2022-08-20T20:53:31.414Z,12.02
2022-08-20T20:56:25.090Z,14.55
2022-08-20T20:58:55.713Z,12.40
2022-08-20T21:01:27.249Z,10.95
2022-08-20T21:04:09.251Z,11.45
2022-08-20T21:06:35.798Z,10.30
2022-08-20T21:09:02.218Z,10.25
2022-08-20T21:11:28.589Z,10.27
2022-08-20T21:13:54.931Z,9.85
2022-08-20T21:16:21.380Z,9.70
2022-08-20T21:18:48.466Z,8.90
2022-08-20T21:21:14.973Z,9.55
2022-08-20T21:23:41.968Z,9.73
2022-08-20T21:26:08.723Z,9.60
2022-08-20T21:28:35.212Z,8.98
2022-08-20T21:31:01.735Z,9.38
2022-08-20T21:33:28.208Z,12.70
2022-08-20T21:35:54.676Z,11.48
2022-08-20T21:38:21.071Z,11.90
2022-08-20T21:40:47.532Z,10.77
2022-08-20T21:43:13.915Z,10.88
2022-08-20T21:45:41.054Z,10.98
2022-08-20T21:48:09.685Z,12.57
2022-08-20T21:50:36.166Z,9.13
2022-08-20T21:53:02.668Z,9.63
2022-08-20T21:55:39.806Z,8.55
2022-08-20T21:58:06.279Z,8.32
2022-08-20T22:00:51.688Z,8.40
2022-08-20T22:03:20.102Z,8.20
2022-08-20T22:05:46.961Z,8.38
2022-08-20T22:08:13.421Z,8.50
2022-08-20T22:10:39.877Z,8.05
2022-08-20T22:13:06.727Z,7.47
2022-08-20T22:15:33.225Z,7.78
2022-08-20T22:17:59.647Z,8.02
2022-08-20T22:20:26.183Z,9.02
2022-08-20T22:22:52.615Z,8.15
2022-08-20T22:25:19.101Z,7.93
2022-08-20T22:27:45.872Z,8.05
2022-08-20T22:30:12.360Z,7.53
2022-08-20T22:32:51.922Z,6.80
2022-08-20T22:35:19.149Z,8.50
2022-08-20T22:37:45.600Z,8.52
2022-08-20T22:40:12.100Z,9.00
2022-08-20T22:42:38.588Z,8.70
2022-08-20T22:45:05.179Z,8.25
2022-08-20T22:47:41.171Z,9.20
2022-08-20T22:50:07.963Z,9.10
2022-08-20T22:52:36.757Z,9.23
2022-08-20T22:55:05.862Z,7.80
2022-08-20T22:57:32.523Z,10.13
2022-08-20T23:00:00.891Z,9.38
2022-08-20T23:02:27.698Z,8.77
2022-08-20T23:04:54.396Z,9.13
2022-08-20T23:07:21.013Z,12.43
2022-08-20T23:09:47.484Z,10.48
2022-08-20T23:12:13.915Z,10.07
2022-08-20T23:14:40.330Z,13.35
2022-08-20T23:17:14.890Z,11.32
2022-08-20T23:19:41.759Z,11.48
2022-08-20T23:22:08.597Z,12.15
2022-08-20T23:24:35.148Z,10.95
2022-08-20T23:27:01.753Z,17.30
2022-08-20T23:29:28.679Z,11.00
2022-08-20T23:31:55.990Z,12.88
2022-08-20T23:34:22.649Z,12.15
2022-08-20T23:36:49.167Z,11.68
2022-08-20T23:39:15.762Z,10.70
2022-08-20T23:41:47.921Z,12.07
2022-08-20T23:44:25.230Z,12.98
2022-08-20T23:46:56.835Z,12.45
2022-08-20T23:49:23.306Z,11.75
2022-08-20T23:51:49.697Z,12.38
2022-08-20T23:54:16.070Z,10.38
2022-08-20T23:56:42.489Z,12.32
2022-08-20T23:59:08.930Z,12.35
